sensor_id;sensor_type;location;lat;lon;timestamp;pressure;altitude;pressure_sealevel;temperature;humidity
79037;BME280;68434;59.896;30.474;2023-09-18T00:00:47;102020.50;;;19.74;48.86
79037;BME280;68434;59.896;30.474;2023-09-18T00:03:16;102023.66;;;19.63;48.59
79037;BME280;68434;59.896;30.474;2023-09-18T00:05:43;102031.09;;;19.54;48.48
79037;BME280;68434;59.896;30.474;2023-09-18T00:08:13;102035.31;;;19.42;48.34
79037;BME280;68434;59.896;30.474;2023-09-18T00:10:41;102036.56;;;19.32;48.42
79037;BME280;68434;59.896;30.474;2023-09-18T00:13:08;102039.84;;;19.27;47.67
79037;BME280;68434;59.896;30.474;2023-09-18T00:15:36;102044.00;;;19.15;48.20
79037;BME280;68434;59.896;30.474;2023-09-18T00:18:04;102049.16;;;19.10;48.01
79037;BME280;68434;59.896;30.474;2023-09-18T00:20:31;102060.50;;;18.99;48.50
79037;BME280;68434;59.896;30.474;2023-09-18T00:22:58;102052.69;;;18.88;48.63
79037;BME280;68434;59.896;30.474;2023-09-18T00:25:27;102062.47;;;18.83;48.54
79037;BME280;68434;59.896;30.474;2023-09-18T00:27:56;102059.59;;;18.76;48.73
79037;BME280;68434;59.896;30.474;2023-09-18T00:30:24;102056.50;;;18.71;48.79
79037;BME280;68434;59.896;30.474;2023-09-18T00:32:51;102063.38;;;18.67;48.80
79037;BME280;68434;59.896;30.474;2023-09-18T00:35:19;102067.84;;;18.60;48.92
79037;BME280;68434;59.896;30.474;2023-09-18T00:37:48;102071.28;;;18.54;49.06
79037;BME280;68434;59.896;30.474;2023-09-18T00:40:15;102075.59;;;18.48;49.14
79037;BME280;68434;59.896;30.474;2023-09-18T00:42:46;102069.59;;;18.45;49.28
79037;BME280;68434;59.896;30.474;2023-09-18T00:45:14;102066.34;;;18.41;49.20
79037;BME280;68434;59.896;30.474;2023-09-18T00:47:42;102074.75;;;18.40;49.27
79037;BME280;68434;59.896;30.474;2023-09-18T00:50:12;102062.38;;;18.36;49.42
79037;BME280;68434;59.896;30.474;2023-09-18T00:52:40;102064.63;;;18.32;49.53
79037;BME280;68434;59.896;30.474;2023-09-18T00:55:08;102060.50;;;18.28;49.57
79037;BME280;68434;59.896;30.474;2023-09-18T00:57:37;102067.00;;;18.27;49.73
79037;BME280;68434;59.896;30.474;2023-09-18T01:00:07;102063.75;;;18.24;49.81
79037;BME280;68434;59.896;30.474;2023-09-18T01:02:35;102070.44;;;18.21;49.96
79037;BME280;68434;59.896;30.474;2023-09-18T01:05:04;102071.81;;;18.17;49.83
79037;BME280;68434;59.896;30.474;2023-09-18T01:07:32;102066.69;;;18.14;49.83
79037;BME280;68434;59.896;30.474;2023-09-18T01:09:59;102070.63;;;18.12;49.68
79037;BME280;68434;59.896;30.474;2023-09-18T01:12:35;102074.72;;;18.08;49.34
79037;BME280;68434;59.896;30.474;2023-09-18T01:15:12;102080.38;;;18.06;49.41
79037;BME280;68434;59.896;30.474;2023-09-18T01:17:42;102074.38;;;18.03;49.54
79037;BME280;68434;59.896;30.474;2023-09-18T01:20:12;102085.50;;;18.01;49.37
79037;BME280;68434;59.896;30.474;2023-09-18T01:22:41;102087.75;;;17.98;49.30
79037;BME280;68434;59.896;30.474;2023-09-18T01:25:09;102090.84;;;17.95;49.12
79037;BME280;68434;59.896;30.474;2023-09-18T01:27:37;102095.63;;;17.93;49.30
79037;BME280;68434;59.896;30.474;2023-09-18T01:30:05;102099.72;;;17.89;49.28
79037;BME280;68434;59.896;30.474;2023-09-18T01:32:34;102095.63;;;17.85;49.32
79037;BME280;68434;59.896;30.474;2023-09-18T01:35:05;102114.09;;;17.83;49.32
79037;BME280;68434;59.896;30.474;2023-09-18T01:37:35;102112.91;;;17.77;49.17
79037;BME280;68434;59.896;30.474;2023-09-18T01:40:06;102107.22;;;17.71;49.15
79037;BME280;68434;59.896;30.474;2023-09-18T01:42:34;102112.16;;;17.67;49.20
79037;BME280;68434;59.896;30.474;2023-09-18T01:45:02;102109.78;;;17.64;48.96
79037;BME280;68434;59.896;30.474;2023-09-18T01:47:32;102121.22;;;17.60;49.14
79037;BME280;68434;59.896;30.474;2023-09-18T01:50:03;102120.88;;;17.55;49.22
79037;BME280;68434;59.896;30.474;2023-09-18T01:52:31;102121.38;;;17.50;49.45
79037;BME280;68434;59.896;30.474;2023-09-18T01:55:01;102124.63;;;17.46;49.65
79037;BME280;68434;59.896;30.474;2023-09-18T01:57:32;102114.97;;;17.42;49.53
79037;BME280;68434;59.896;30.474;2023-09-18T01:59:59;102120.44;;;17.42;49.82
79037;BME280;68434;59.896;30.474;2023-09-18T02:02:27;102123.34;;;17.40;49.52
79037;BME280;68434;59.896;30.474;2023-09-18T02:04:55;102124.56;;;17.38;49.82
79037;BME280;68434;59.896;30.474;2023-09-18T02:07:25;102120.28;;;17.35;50.10
79037;BME280;68434;59.896;30.474;2023-09-18T02:09:52;102127.78;;;17.33;49.85
79037;BME280;68434;59.896;30.474;2023-09-18T02:12:19;102132.72;;;17.30;50.02
79037;BME280;68434;59.896;30.474;2023-09-18T02:14:49;102128.44;;;17.27;50.27
79037;BME280;68434;59.896;30.474;2023-09-18T02:17:17;102127.91;;;17.24;49.94
79037;BME280;68434;59.896;30.474;2023-09-18T02:19:46;102131.50;;;17.24;50.31
79037;BME280;68434;59.896;30.474;2023-09-18T02:22:14;102128.94;;;17.23;50.36
79037;BME280;68434;59.896;30.474;2023-09-18T02:24:42;102146.06;;;17.25;50.15
79037;BME280;68434;59.896;30.474;2023-09-18T02:27:09;102134.56;;;17.21;49.86
79037;BME280;68434;59.896;30.474;2023-09-18T02:29:37;102141.91;;;17.21;49.82
79037;BME280;68434;59.896;30.474;2023-09-18T02:32:06;102160.38;;;17.19;49.96
79037;BME280;68434;59.896;30.474;2023-09-18T02:34:34;102156.78;;;17.18;49.85
79037;BME280;68434;59.896;30.474;2023-09-18T02:37:02;102154.22;;;17.17;50.37
79037;BME280;68434;59.896;30.474;2023-09-18T02:39:29;102148.19;;;17.13;50.05
79037;BME280;68434;59.896;30.474;2023-09-18T02:41:56;102155.72;;;17.11;49.70
79037;BME280;68434;59.896;30.474;2023-09-18T02:44:24;102143.22;;;17.09;49.81
79037;BME280;68434;59.896;30.474;2023-09-18T02:46:51;102145.13;;;17.08;50.01
79037;BME280;68434;59.896;30.474;2023-09-18T02:49:20;102149.00;;;17.06;50.09
79037;BME280;68434;59.896;30.474;2023-09-18T02:51:48;102145.44;;;17.05;49.89
79037;BME280;68434;59.896;30.474;2023-09-18T02:54:15;102140.97;;;17.04;50.07
79037;BME280;68434;59.896;30.474;2023-09-18T02:56:43;102135.00;;;17.01;49.88
79037;BME280;68434;59.896;30.474;2023-09-18T02:59:10;102145.94;;;17.01;49.49
79037;BME280;68434;59.896;30.474;2023-09-18T03:01:38;102140.63;;;16.99;49.72
79037;BME280;68434;59.896;30.474;2023-09-18T03:04:05;102143.53;;;16.98;49.72
79037;BME280;68434;59.896;30.474;2023-09-18T03:06:34;102147.41;;;16.95;49.84
79037;BME280;68434;59.896;30.474;2023-09-18T03:09:05;102147.75;;;16.92;49.97
79037;BME280;68434;59.896;30.474;2023-09-18T03:11:32;102156.09;;;16.90;49.87
79037;BME280;68434;59.896;30.474;2023-09-18T03:13:59;102159.88;;;16.89;50.02
79037;BME280;68434;59.896;30.474;2023-09-18T03:16:27;102161.72;;;16.89;49.60
79037;BME280;68434;59.896;30.474;2023-09-18T03:18:54;102158.31;;;16.87;50.24
79037;BME280;68434;59.896;30.474;2023-09-18T03:21:22;102168.56;;;16.85;50.20
79037;BME280;68434;59.896;30.474;2023-09-18T03:23:50;102171.44;;;16.83;50.00
79037;BME280;68434;59.896;30.474;2023-09-18T03:26:18;102167.84;;;16.83;50.13
79037;BME280;68434;59.896;30.474;2023-09-18T03:28:45;102170.59;;;16.83;50.14
79037;BME280;68434;59.896;30.474;2023-09-18T03:31:13;102164.44;;;16.81;50.52
79037;BME280;68434;59.896;30.474;2023-09-18T03:33:40;102155.38;;;16.80;50.09
79037;BME280;68434;59.896;30.474;2023-09-18T03:36:08;102153.66;;;16.79;50.48
79037;BME280;68434;59.896;30.474;2023-09-18T03:38:38;102150.94;;;16.79;50.48
79037;BME280;68434;59.896;30.474;2023-09-18T03:41:08;102138.59;;;16.75;50.73
79037;BME280;68434;59.896;30.474;2023-09-18T03:43:35;102149.69;;;16.74;50.56
79037;BME280;68434;59.896;30.474;2023-09-18T03:46:03;102157.53;;;16.69;50.39
79037;BME280;68434;59.896;30.474;2023-09-18T03:48:34;102144.84;;;16.68;50.48
79037;BME280;68434;59.896;30.474;2023-09-18T03:51:04;102150.63;;;16.65;50.45
79037;BME280;68434;59.896;30.474;2023-09-18T03:53:32;102149.25;;;16.61;50.68
79037;BME280;68434;59.896;30.474;2023-09-18T03:55:59;102154.00;;;16.59;50.39
79037;BME280;68434;59.896;30.474;2023-09-18T03:58:28;102158.66;;;16.58;50.79
79037;BME280;68434;59.896;30.474;2023-09-18T04:00:55;102159.78;;;16.56;50.35
79037;BME280;68434;59.896;30.474;2023-09-18T04:03:23;102165.25;;;16.56;50.97
79037;BME280;68434;59.896;30.474;2023-09-18T04:05:50;102165.41;;;16.54;51.15
79037;BME280;68434;59.896;30.474;2023-09-18T04:08:18;102161.84;;;16.54;51.31
79037;BME280;68434;59.896;30.474;2023-09-18T04:10:45;102168.31;;;16.53;51.45
79037;BME280;68434;59.896;30.474;2023-09-18T04:13:13;102173.94;;;16.51;51.15
79037;BME280;68434;59.896;30.474;2023-09-18T04:15:41;102177.84;;;16.49;51.30
79037;BME280;68434;59.896;30.474;2023-09-18T04:18:09;102184.19;;;16.49;51.39
79037;BME280;68434;59.896;30.474;2023-09-18T04:20:36;102178.72;;;16.49;51.63
79037;BME280;68434;59.896;30.474;2023-09-18T04:23:21;102179.88;;;16.47;51.70
79037;BME280;68434;59.896;30.474;2023-09-18T04:25:49;102185.19;;;16.48;51.72
79037;BME280;68434;59.896;30.474;2023-09-18T04:28:18;102186.22;;;16.47;51.59
79037;BME280;68434;59.896;30.474;2023-09-18T04:30:47;102189.97;;;16.46;51.67
79037;BME280;68434;59.896;30.474;2023-09-18T04:33:15;102180.03;;;16.45;51.84
79037;BME280;68434;59.896;30.474;2023-09-18T04:35:43;102182.94;;;16.44;51.96
79037;BME280;68434;59.896;30.474;2023-09-18T04:38:11;102177.47;;;16.44;51.88
79037;BME280;68434;59.896;30.474;2023-09-18T04:40:43;102172.13;;;16.42;51.80
79037;BME280;68434;59.896;30.474;2023-09-18T04:43:14;102184.06;;;16.41;51.49
79037;BME280;68434;59.896;30.474;2023-09-18T04:45:41;102178.78;;;16.40;51.67
79037;BME280;68434;59.896;30.474;2023-09-18T04:48:11;102178.06;;;16.38;51.30
79037;BME280;68434;59.896;30.474;2023-09-18T04:50:38;102182.13;;;16.34;51.72
79037;BME280;68434;59.896;30.474;2023-09-18T04:53:06;102187.59;;;16.34;51.31
79037;BME280;68434;59.896;30.474;2023-09-18T04:55:34;102189.47;;;16.33;51.32
79037;BME280;68434;59.896;30.474;2023-09-18T04:58:04;102182.59;;;16.29;51.90
79037;BME280;68434;59.896;30.474;2023-09-18T05:00:32;102191.81;;;16.28;51.53
79037;BME280;68434;59.896;30.474;2023-09-18T05:03:00;102193.69;;;16.28;51.63
79037;BME280;68434;59.896;30.474;2023-09-18T05:05:30;102188.38;;;16.26;51.52
79037;BME280;68434;59.896;30.474;2023-09-18T05:07:58;102185.66;;;16.26;51.53
79037;BME280;68434;59.896;30.474;2023-09-18T05:10:25;102179.47;;;16.24;51.71
79037;BME280;68434;59.896;30.474;2023-09-18T05:12:53;102185.09;;;16.23;51.49
79037;BME280;68434;59.896;30.474;2023-09-18T05:15:24;102192.44;;;16.22;51.59
79037;BME280;68434;59.896;30.474;2023-09-18T05:17:52;102194.31;;;16.22;52.33
79037;BME280;68434;59.896;30.474;2023-09-18T05:20:23;102199.00;;;16.29;53.82
79037;BME280;68434;59.896;30.474;2023-09-18T05:22:52;102205.66;;;16.44;55.18
79037;BME280;68434;59.896;30.474;2023-09-18T05:25:21;102194.44;;;16.73;55.59
79037;BME280;68434;59.896;30.474;2023-09-18T05:27:49;102198.56;;;17.03;55.37
79037;BME280;68434;59.896;30.474;2023-09-18T05:30:23;102196.28;;;17.24;55.39
79037;BME280;68434;59.896;30.474;2023-09-18T05:32:53;102199.78;;;17.42;55.34
79037;BME280;68434;59.896;30.474;2023-09-18T05:35:21;102196.09;;;17.51;55.45
79037;BME280;68434;59.896;30.474;2023-09-18T05:37:49;102203.31;;;17.60;55.33
79037;BME280;68434;59.896;30.474;2023-09-18T05:40:19;102209.00;;;17.66;55.26
79037;BME280;68434;59.896;30.474;2023-09-18T05:42:47;102209.22;;;17.73;55.40
79037;BME280;68434;59.896;30.474;2023-09-18T05:45:14;102215.91;;;17.78;54.90
79037;BME280;68434;59.896;30.474;2023-09-18T05:47:42;102217.97;;;17.84;55.05
79037;BME280;68434;59.896;30.474;2023-09-18T05:50:10;102213.69;;;17.90;54.89
79037;BME280;68434;59.896;30.474;2023-09-18T05:52:41;102203.97;;;17.95;54.97
79037;BME280;68434;59.896;30.474;2023-09-18T05:55:09;102208.91;;;18.00;54.84
79037;BME280;68434;59.896;30.474;2023-09-18T05:57:38;102210.16;;;18.05;54.82
79037;BME280;68434;59.896;30.474;2023-09-18T06:00:07;102203.63;;;18.06;55.23
79037;BME280;68434;59.896;30.474;2023-09-18T06:02:39;102219.59;;;18.19;55.07
79037;BME280;68434;59.896;30.474;2023-09-18T06:05:07;102221.81;;;18.23;55.11
79037;BME280;68434;59.896;30.474;2023-09-18T06:07:37;102221.16;;;18.29;55.29
79037;BME280;68434;59.896;30.474;2023-09-18T06:10:06;102225.09;;;18.35;55.45
79037;BME280;68434;59.896;30.474;2023-09-18T06:12:33;102224.59;;;18.39;55.47
79037;BME280;68434;59.896;30.474;2023-09-18T06:15:03;102222.06;;;18.46;55.55
79037;BME280;68434;59.896;30.474;2023-09-18T06:17:31;102228.56;;;18.53;55.48
79037;BME280;68434;59.896;30.474;2023-09-18T06:19:59;102231.66;;;18.58;55.39
79037;BME280;68434;59.896;30.474;2023-09-18T06:22:27;102224.63;;;18.63;55.41
79037;BME280;68434;59.896;30.474;2023-09-18T06:24:54;102233.69;;;18.48;53.90
79037;BME280;68434;59.896;30.474;2023-09-18T06:27:21;102235.03;;;18.28;52.90
79037;BME280;68434;59.896;30.474;2023-09-18T06:29:49;102234.63;;;18.15;52.21
79037;BME280;68434;59.896;30.474;2023-09-18T06:32:18;102235.47;;;17.99;51.69
79037;BME280;68434;59.896;30.474;2023-09-18T06:34:45;102242.13;;;17.89;51.63
79037;BME280;68434;59.896;30.474;2023-09-18T06:37:13;102244.84;;;17.89;51.30
79037;BME280;68434;59.896;30.474;2023-09-18T06:39:41;102233.91;;;17.89;50.79
79037;BME280;68434;59.896;30.474;2023-09-18T06:42:09;102236.97;;;17.86;50.63
79037;BME280;68434;59.896;30.474;2023-09-18T06:44:37;102247.59;;;17.89;50.67
79037;BME280;68434;59.896;30.474;2023-09-18T06:47:05;102252.03;;;17.82;50.76
79037;BME280;68434;59.896;30.474;2023-09-18T06:49:34;102244.91;;;17.63;51.00
79037;BME280;68434;59.896;30.474;2023-09-18T06:52:01;102242.47;;;17.52;50.98
79037;BME280;68434;59.896;30.474;2023-09-18T06:54:29;102247.91;;;17.44;50.93
79037;BME280;68434;59.896;30.474;2023-09-18T06:56:57;102238.09;;;17.42;50.96
79037;BME280;68434;59.896;30.474;2023-09-18T06:59:26;102244.31;;;17.44;50.80
79037;BME280;68434;59.896;30.474;2023-09-18T07:01:54;102238.50;;;17.47;50.48
79037;BME280;68434;59.896;30.474;2023-09-18T07:04:23;102237.66;;;17.46;50.66
79037;BME280;68434;59.896;30.474;2023-09-18T07:06:52;102242.13;;;17.55;50.46
79037;BME280;68434;59.896;30.474;2023-09-18T07:09:20;102246.78;;;17.55;50.16
79037;BME280;68434;59.896;30.474;2023-09-18T07:11:49;102252.41;;;17.53;49.99
79037;BME280;68434;59.896;30.474;2023-09-18T07:14:16;102247.94;;;17.52;49.95
79037;BME280;68434;59.896;30.474;2023-09-18T07:16:44;102249.50;;;17.55;50.07
79037;BME280;68434;59.896;30.474;2023-09-18T07:19:11;102249.69;;;17.61;49.92
79037;BME280;68434;59.896;30.474;2023-09-18T07:21:43;102245.78;;;17.64;49.97
79037;BME280;68434;59.896;30.474;2023-09-18T07:24:12;102247.13;;;17.60;50.45
79037;BME280;68434;59.896;30.474;2023-09-18T07:26:46;102253.94;;;17.56;50.05
79037;BME280;68434;59.896;30.474;2023-09-18T07:29:14;102250.00;;;17.50;50.24
79037;BME280;68434;59.896;30.474;2023-09-18T07:31:42;102250.50;;;17.46;49.81
79037;BME280;68434;59.896;30.474;2023-09-18T07:34:10;102258.69;;;17.46;49.96
79037;BME280;68434;59.896;30.474;2023-09-18T07:36:37;102258.38;;;17.49;49.87
79037;BME280;68434;59.896;30.474;2023-09-18T07:39:05;102263.31;;;17.45;49.70
79037;BME280;68434;59.896;30.474;2023-09-18T07:41:34;102264.34;;;17.44;49.25
79037;BME280;68434;59.896;30.474;2023-09-18T07:44:01;102261.03;;;17.41;49.28
79037;BME280;68434;59.896;30.474;2023-09-18T07:46:29;102264.94;;;17.38;49.44
79037;BME280;68434;59.896;30.474;2023-09-18T07:48:57;102261.19;;;17.39;49.36
79037;BME280;68434;59.896;30.474;2023-09-18T07:51:24;102263.06;;;17.39;49.38
79037;BME280;68434;59.896;30.474;2023-09-18T07:53:51;102261.19;;;17.39;49.65
79037;BME280;68434;59.896;30.474;2023-09-18T07:56:19;102263.53;;;17.34;49.58
79037;BME280;68434;59.896;30.474;2023-09-18T07:58:48;102268.50;;;17.31;49.39
79037;BME280;68434;59.896;30.474;2023-09-18T08:01:16;102269.19;;;17.33;49.45
79037;BME280;68434;59.896;30.474;2023-09-18T08:03:44;102272.63;;;17.35;49.42
79037;BME280;68434;59.896;30.474;2023-09-18T08:06:14;102257.00;;;17.27;49.26
79037;BME280;68434;59.896;30.474;2023-09-18T08:08:44;102272.41;;;17.28;48.93
79037;BME280;68434;59.896;30.474;2023-09-18T08:11:12;102265.94;;;17.29;49.39
79037;BME280;68434;59.896;30.474;2023-09-18T08:13:41;102261.44;;;17.28;49.24
79037;BME280;68434;59.896;30.474;2023-09-18T08:16:10;102266.09;;;17.28;49.60
79037;BME280;68434;59.896;30.474;2023-09-18T08:18:38;102257.41;;;17.32;49.60
79037;BME280;68434;59.896;30.474;2023-09-18T08:21:09;102263.19;;;17.29;49.12
79037;BME280;68434;59.896;30.474;2023-09-18T08:23:39;102252.34;;;17.20;48.71
79037;BME280;68434;59.896;30.474;2023-09-18T08:26:07;102262.41;;;17.19;48.90
79037;BME280;68434;59.896;30.474;2023-09-18T08:28:34;102268.59;;;17.21;48.52
79037;BME280;68434;59.896;30.474;2023-09-18T08:31:04;102258.84;;;17.19;48.31
79037;BME280;68434;59.896;30.474;2023-09-18T08:33:33;102258.53;;;17.22;48.63
79037;BME280;68434;59.896;30.474;2023-09-18T08:36:02;102261.59;;;17.19;48.40
79037;BME280;68434;59.896;30.474;2023-09-18T08:38:29;102258.47;;;17.14;48.35
79037;BME280;68434;59.896;30.474;2023-09-18T08:40:57;102263.94;;;17.14;48.68
79037;BME280;68434;59.896;30.474;2023-09-18T08:43:26;102264.47;;;17.17;48.74
79037;BME280;68434;59.896;30.474;2023-09-18T08:45:54;102269.78;;;17.19;48.82
79037;BME280;68434;59.896;30.474;2023-09-18T08:48:28;102266.50;;;17.15;48.08
79037;BME280;68434;59.896;30.474;2023-09-18T08:51:03;102264.81;;;17.14;48.17
79037;BME280;68434;59.896;30.474;2023-09-18T08:53:32;102274.00;;;17.13;48.51
79037;BME280;68434;59.896;30.474;2023-09-18T08:55:59;102269.94;;;17.17;48.67
79037;BME280;68434;59.896;30.474;2023-09-18T08:58:28;102267.06;;;17.19;48.28
79037;BME280;68434;59.896;30.474;2023-09-18T09:00:59;102273.53;;;17.18;48.53
79037;BME280;68434;59.896;30.474;2023-09-18T09:03:33;102278.09;;;17.09;48.41
79037;BME280;68434;59.896;30.474;2023-09-18T09:06:03;102277.38;;;17.07;48.76
79037;BME280;68434;59.896;30.474;2023-09-18T09:08:31;102277.22;;;17.09;48.82
79037;BME280;68434;59.896;30.474;2023-09-18T09:10:59;102277.72;;;17.30;49.36
79037;BME280;68434;59.896;30.474;2023-09-18T09:13:27;102277.56;;;17.57;50.03
79037;BME280;68434;59.896;30.474;2023-09-18T09:15:56;102275.09;;;17.79;50.95
79037;BME280;68434;59.896;30.474;2023-09-18T09:18:25;102269.88;;;17.94;52.02
79037;BME280;68434;59.896;30.474;2023-09-18T09:20:53;102276.56;;;18.07;52.75
79037;BME280;68434;59.896;30.474;2023-09-18T09:23:26;102274.56;;;18.17;53.54
79037;BME280;68434;59.896;30.474;2023-09-18T09:26:12;102283.47;;;18.27;54.58
79037;BME280;68434;59.896;30.474;2023-09-18T09:28:40;102279.72;;;18.36;54.26
79037;BME280;68434;59.896;30.474;2023-09-18T09:31:09;102278.06;;;18.51;54.16
79037;BME280;68434;59.896;30.474;2023-09-18T09:33:37;102283.72;;;18.66;54.38
79037;BME280;68434;59.896;30.474;2023-09-18T09:36:07;102288.69;;;18.70;54.65
79037;BME280;68434;59.896;30.474;2023-09-18T09:38:36;102295.75;;;18.73;54.65
79037;BME280;68434;59.896;30.474;2023-09-18T09:41:05;102292.13;;;18.73;54.64
79037;BME280;68434;59.896;30.474;2023-09-18T09:43:36;102291.28;;;18.72;54.37
79037;BME280;68434;59.896;30.474;2023-09-18T09:46:03;102283.03;;;18.72;54.43
79037;BME280;68434;59.896;30.474;2023-09-18T09:48:31;102287.69;;;18.72;54.27
79037;BME280;68434;59.896;30.474;2023-09-18T09:51:00;102287.53;;;18.73;54.15
79037;BME280;68434;59.896;30.474;2023-09-18T09:53:43;102286.47;;;18.74;53.96
79037;BME280;68434;59.896;30.474;2023-09-18T09:56:13;102282.69;;;18.75;54.03
79037;BME280;68434;59.896;30.474;2023-09-18T09:58:41;102283.56;;;18.76;53.85
79037;BME280;68434;59.896;30.474;2023-09-18T10:01:12;102278.63;;;18.79;54.13
79037;BME280;68434;59.896;30.474;2023-09-18T10:03:44;102270.72;;;18.84;54.83
79037;BME280;68434;59.896;30.474;2023-09-18T10:06:13;102277.41;;;18.90;55.18
79037;BME280;68434;59.896;30.474;2023-09-18T10:08:40;102282.22;;;18.96;54.80
79037;BME280;68434;59.896;30.474;2023-09-18T10:11:09;102282.34;;;19.02;54.72
79037;BME280;68434;59.896;30.474;2023-09-18T10:13:46;102285.09;;;19.10;54.88
79037;BME280;68434;59.896;30.474;2023-09-18T10:16:17;102286.09;;;19.17;54.75
79037;BME280;68434;59.896;30.474;2023-09-18T10:18:55;102286.28;;;19.24;54.85
79037;BME280;68434;59.896;30.474;2023-09-18T10:21:27;102280.78;;;19.24;54.58
79037;BME280;68434;59.896;30.474;2023-09-18T10:24:04;102276.84;;;19.26;54.53
79037;BME280;68434;59.896;30.474;2023-09-18T10:26:46;102272.06;;;19.36;54.34
79037;BME280;68434;59.896;30.474;2023-09-18T10:29:16;102282.81;;;19.46;53.87
79037;BME280;68434;59.896;30.474;2023-09-18T10:31:45;102282.13;;;19.52;53.97
79037;BME280;68434;59.896;30.474;2023-09-18T10:34:13;102284.00;;;19.59;53.71
79037;BME280;68434;59.896;30.474;2023-09-18T10:36:44;102284.34;;;19.64;53.87
79037;BME280;68434;59.896;30.474;2023-09-18T10:39:14;102289.28;;;19.69;53.63
79037;BME280;68434;59.896;30.474;2023-09-18T10:41:50;102287.06;;;19.72;53.52
79037;BME280;68434;59.896;30.474;2023-09-18T10:44:18;102283.97;;;19.75;53.28
79037;BME280;68434;59.896;30.474;2023-09-18T10:46:47;102264.72;;;19.75;52.79
79037;BME280;68434;59.896;30.474;2023-09-18T10:49:15;102280.84;;;19.78;53.05
79037;BME280;68434;59.896;30.474;2023-09-18T10:51:44;102282.56;;;19.79;52.87
79037;BME280;68434;59.896;30.474;2023-09-18T10:54:16;102284.09;;;19.82;52.73
79037;BME280;68434;59.896;30.474;2023-09-18T10:56:44;102291.78;;;19.86;52.46
79037;BME280;68434;59.896;30.474;2023-09-18T10:59:14;102288.91;;;19.80;52.62
79037;BME280;68434;59.896;30.474;2023-09-18T11:01:42;102297.50;;;19.77;52.60
79037;BME280;68434;59.896;30.474;2023-09-18T11:04:11;102291.50;;;19.73;53.00
79037;BME280;68434;59.896;30.474;2023-09-18T11:07:02;102294.06;;;19.75;53.36
79037;BME280;68434;59.896;30.474;2023-09-18T11:09:41;102293.91;;;19.76;53.60
79037;BME280;68434;59.896;30.474;2023-09-18T11:12:09;102298.16;;;19.79;54.15
79037;BME280;68434;59.896;30.474;2023-09-18T11:14:50;102296.44;;;19.86;54.95
79037;BME280;68434;59.896;30.474;2023-09-18T11:17:31;102296.41;;;19.94;56.08
79037;BME280;68434;59.896;30.474;2023-09-18T11:20:17;102291.06;;;20.00;57.07
79037;BME280;68434;59.896;30.474;2023-09-18T11:22:50;102296.19;;;20.03;57.13
79037;BME280;68434;59.896;30.474;2023-09-18T11:25:36;102301.16;;;20.08;57.27
79037;BME280;68434;59.896;30.474;2023-09-18T11:28:05;102297.91;;;20.12;57.02
79037;BME280;68434;59.896;30.474;2023-09-18T11:30:36;102296.31;;;20.18;57.03
79037;BME280;68434;59.896;30.474;2023-09-18T11:33:06;102302.13;;;20.23;56.89
79037;BME280;68434;59.896;30.474;2023-09-18T11:35:35;102298.16;;;20.25;56.30
79037;BME280;68434;59.896;30.474;2023-09-18T11:38:04;102306.03;;;20.28;56.45
79037;BME280;68434;59.896;30.474;2023-09-18T11:40:34;102295.72;;;20.30;56.23
79037;BME280;68434;59.896;30.474;2023-09-18T11:43:25;102290.06;;;20.32;56.32
79037;BME280;68434;59.896;30.474;2023-09-18T11:45:58;102284.88;;;20.37;56.04
79037;BME280;68434;59.896;30.474;2023-09-18T11:48:28;102298.25;;;20.40;55.72
79037;BME280;68434;59.896;30.474;2023-09-18T11:50:59;102287.09;;;20.41;55.72
79037;BME280;68434;59.896;30.474;2023-09-18T11:53:34;102288.59;;;20.44;55.40
79037;BME280;68434;59.896;30.474;2023-09-18T11:56:10;102281.88;;;20.46;55.13
79037;BME280;68434;59.896;30.474;2023-09-18T11:58:47;102284.06;;;20.51;54.91
79037;BME280;68434;59.896;30.474;2023-09-18T12:01:19;102284.69;;;20.61;54.20
79037;BME280;68434;59.896;30.474;2023-09-18T12:03:53;102272.56;;;20.70;53.84
79037;BME280;68434;59.896;30.474;2023-09-18T12:06:23;102277.72;;;20.73;54.02
79037;BME280;68434;59.896;30.474;2023-09-18T12:08:54;102281.50;;;20.72;54.38
79037;BME280;68434;59.896;30.474;2023-09-18T12:11:22;102279.81;;;20.71;54.76
79037;BME280;68434;59.896;30.474;2023-09-18T12:13:51;102274.50;;;20.70;55.09
79037;BME280;68434;59.896;30.474;2023-09-18T12:16:21;102270.00;;;20.69;55.51
79037;BME280;68434;59.896;30.474;2023-09-18T12:18:49;102263.88;;;20.67;55.96
79037;BME280;68434;59.896;30.474;2023-09-18T12:21:17;102262.81;;;20.68;55.85
79037;BME280;68434;59.896;30.474;2023-09-18T12:23:45;102265.75;;;20.66;55.79
79037;BME280;68434;59.896;30.474;2023-09-18T12:26:16;102274.88;;;20.67;55.62
79037;BME280;68434;59.896;30.474;2023-09-18T12:28:46;102262.81;;;20.68;55.74
79037;BME280;68434;59.896;30.474;2023-09-18T12:31:15;102261.28;;;20.65;55.68
79037;BME280;68434;59.896;30.474;2023-09-18T12:33:45;102262.31;;;20.64;55.36
79037;BME280;68434;59.896;30.474;2023-09-18T12:36:19;102260.44;;;20.65;55.04
79037;BME280;68434;59.896;30.474;2023-09-18T12:38:55;102258.53;;;20.65;54.79
79037;BME280;68434;59.896;30.474;2023-09-18T12:41:26;102256.63;;;20.66;54.59
79037;BME280;68434;59.896;30.474;2023-09-18T12:43:54;102256.81;;;20.64;54.68
79037;BME280;68434;59.896;30.474;2023-09-18T12:46:23;102258.72;;;20.64;54.52
79037;BME280;68434;59.896;30.474;2023-09-18T12:48:52;102265.06;;;20.64;54.11
79037;BME280;68434;59.896;30.474;2023-09-18T12:51:28;102258.53;;;20.65;54.22